Time;durP1;ratioP1;P1;durP2;ratioP2;P2;SDS_P1;SDS_P2;PMS_P1;PMS_P2;Temp;Humidity;BMP_temperature;BMP_pressure;BME280_temperature;BME280_humidity;BME280_pressure;Samples;Min_cycle;Max_cycle;Signal;HPM_P1;HPM_P2
2021/03/02 00:01:30;;;;;;;16.20;12.13;;;5.50;99.90;;;;;;5039735;28;20512;-72
2021/03/02 00:03:57;;;;;;;15.07;11.70;;;5.50;99.90;;;;;;5038372;28;20437;-71
2021/03/02 00:06:23;;;;;;;15.80;13.20;;;5.50;99.90;;;;;;5038849;28;20500;-71
2021/03/02 00:08:50;;;;;;;13.93;11.27;;;5.50;99.90;;;;;;5035812;28;20499;-72
2021/03/02 00:11:16;;;;;;;13.13;10.20;;;5.40;99.90;;;;;;5036990;28;20429;-71
2021/03/02 00:13:41;;;;;;;12.00;10.60;;;5.50;99.90;;;;;;5036760;28;20401;-71
2021/03/02 00:16:08;;;;;;;18.20;11.90;;;5.40;99.90;;;;;;5036750;28;20174;-71
2021/03/02 00:18:49;;;;;;;13.40;11.00;;;5.40;99.90;;;;;;5035963;28;20190;-71
2021/03/02 00:21:23;;;;;;;16.37;11.47;;;5.40;99.90;;;;;;5036495;28;20913;-71
2021/03/02 00:24:02;;;;;;;14.23;10.83;;;5.30;99.90;;;;;;5036181;28;20435;-70
2021/03/02 00:26:32;;;;;;;16.90;11.50;;;5.30;99.90;;;;;;5019588;28;20512;-70
2021/03/02 00:29:02;;;;;;;17.30;11.53;;;5.30;99.90;;;;;;5037772;28;20495;-70
2021/03/02 00:31:33;;;;;;;14.40;10.43;;;5.20;99.90;;;;;;5039615;28;20468;-70
2021/03/02 00:33:59;;;;;;;14.77;12.10;;;5.20;99.90;;;;;;5037346;28;20469;-71
2021/03/02 00:36:25;;;;;;;17.03;10.67;;;5.20;99.90;;;;;;5036748;28;20416;-71
2021/03/02 00:38:50;;;;;;;14.73;11.17;;;5.10;99.90;;;;;;5035795;28;20669;-71
2021/03/02 00:41:16;;;;;;;15.97;10.47;;;5.20;99.90;;;;;;5038554;28;20289;-71
2021/03/02 00:43:41;;;;;;;12.63;10.27;;;5.10;99.90;;;;;;5040244;28;20205;-71
2021/03/02 00:46:07;;;;;;;15.27;11.13;;;5.10;99.90;;;;;;5036755;28;20171;-71
2021/03/02 00:48:32;;;;;;;13.20;9.80;;;5.10;99.90;;;;;;5035545;28;20175;-71
2021/03/02 00:50:59;;;;;;;12.67;10.73;;;5.00;99.90;;;;;;5035376;28;20297;-71
2021/03/02 00:53:26;;;;;;;11.40;10.20;;;4.90;99.90;;;;;;5036474;28;20171;-71
2021/03/02 00:55:51;;;;;;;15.67;10.87;;;4.80;99.90;;;;;;5035921;28;20419;-71
2021/03/02 00:58:17;;;;;;;13.70;9.80;;;4.80;99.90;;;;;;5035363;28;20898;-71
2021/03/02 01:00:42;;;;;;;12.23;9.90;;;4.90;99.90;;;;;;5035657;28;20269;-71
2021/03/02 01:03:08;;;;;;;13.20;10.80;;;4.90;99.90;;;;;;5035500;28;20235;-71
2021/03/02 01:05:33;;;;;;;12.70;9.60;;;4.90;99.90;;;;;;5036020;28;20777;-70
2021/03/02 01:07:59;;;;;;;13.90;11.03;;;4.90;99.90;;;;;;5035482;28;20169;-70
2021/03/02 01:10:24;;;;;;;16.17;11.23;;;4.90;99.90;;;;;;5035665;28;20289;-70
2021/03/02 01:12:50;;;;;;;13.30;10.30;;;4.90;99.90;;;;;;5036236;28;20179;-70
2021/03/02 01:15:15;;;;;;;15.27;11.40;;;4.90;99.90;;;;;;5035857;28;20186;-70
2021/03/02 01:17:41;;;;;;;12.83;10.30;;;4.90;99.90;;;;;;5037047;28;20261;-70
2021/03/02 01:20:08;;;;;;;14.17;10.77;;;4.80;99.90;;;;;;5035431;28;20212;-71
2021/03/02 01:22:33;;;;;;;11.80;9.83;;;4.80;99.90;;;;;;5035843;28;20215;-70
2021/03/02 01:24:59;;;;;;;14.43;10.60;;;4.80;99.90;;;;;;5035580;28;20444;-70
2021/03/02 01:27:24;;;;;;;12.53;10.73;;;4.90;99.90;;;;;;5035561;28;20182;-70
2021/03/02 01:29:50;;;;;;;14.83;10.97;;;4.90;99.90;;;;;;5035310;28;20218;-70
2021/03/02 01:32:15;;;;;;;13.90;10.03;;;4.90;99.90;;;;;;5035515;28;20697;-70
2021/03/02 01:34:41;;;;;;;15.60;10.47;;;4.90;99.90;;;;;;5036390;28;20179;-70
2021/03/02 01:37:07;;;;;;;14.00;10.10;;;4.90;99.90;;;;;;5035544;28;20186;-70
2021/03/02 01:39:33;;;;;;;11.60;9.33;;;4.90;99.90;;;;;;5034685;28;20202;-71
2021/03/02 01:41:59;;;;;;;12.20;10.13;;;4.90;99.90;;;;;;5034522;28;20540;-71
2021/03/02 01:44:29;;;;;;;11.83;9.13;;;4.80;99.90;;;;;;5034292;28;20439;-71
2021/03/02 01:46:55;;;;;;;9.67;8.50;;;4.70;99.90;;;;;;5035291;28;20413;-71
2021/03/02 01:49:22;;;;;;;15.33;9.20;;;4.70;99.90;;;;;;5034162;28;20716;-71
2021/03/02 01:51:48;;;;;;;12.73;9.73;;;4.60;99.90;;;;;;5034236;28;20474;-71
2021/03/02 01:54:15;;;;;;;12.73;9.20;;;4.60;99.90;;;;;;5016633;28;20420;-71
2021/03/02 01:56:41;;;;;;;14.97;10.87;;;4.60;99.90;;;;;;5034446;28;20456;-71
2021/03/02 01:59:07;;;;;;;13.33;8.90;;;4.60;99.90;;;;;;5034269;28;20782;-71
2021/03/02 02:01:34;;;;;;;14.80;10.50;;;4.60;99.90;;;;;;5033735;28;20448;-71
2021/03/02 02:04:16;;;;;;;12.20;9.17;;;4.60;99.90;;;;;;5016513;28;20778;-71
2021/03/02 02:06:48;;;;;;;11.57;10.33;;;4.50;99.90;;;;;;5034787;28;20440;-71
2021/03/02 02:09:25;;;;;;;11.23;9.40;;;4.50;99.90;;;;;;5034328;28;20494;-71
2021/03/02 02:12:06;;;;;;;13.00;9.00;;;4.50;99.90;;;;;;5034295;28;20420;-71
2021/03/02 02:14:43;;;;;;;13.67;9.90;;;4.50;99.90;;;;;;5033920;28;20416;-71
2021/03/02 02:17:19;;;;;;;10.40;9.23;;;4.50;99.90;;;;;;5034297;28;20413;-71
2021/03/02 02:19:49;;;;;;;13.23;10.33;;;4.60;99.90;;;;;;5033813;28;20475;-72
2021/03/02 02:22:33;;;;;;;11.43;9.83;;;4.50;99.90;;;;;;5033835;28;20412;-71
2021/03/02 02:25:40;;;;;;;11.57;8.90;;;4.50;99.90;;;;;;5033118;28;20921;-71
2021/03/02 02:28:08;;;;;;;11.67;9.27;;;4.60;99.90;;;;;;5034210;28;20493;-71
2021/03/02 02:30:34;;;;;;;12.67;9.50;;;4.50;99.90;;;;;;5033160;28;20441;-71
2021/03/02 02:33:02;;;;;;;10.63;9.43;;;4.60;99.90;;;;;;5034476;28;20409;-71
2021/03/02 02:35:28;;;;;;;10.73;8.87;;;4.60;99.90;;;;;;5034022;28;20424;-71
2021/03/02 02:37:56;;;;;;;10.67;8.10;;;4.60;99.90;;;;;;5016863;28;20439;-71
2021/03/02 02:40:23;;;;;;;12.53;8.97;;;4.60;99.90;;;;;;5017304;28;20502;-71
2021/03/02 02:42:51;;;;;;;13.43;9.23;;;4.60;99.90;;;;;;5040758;28;20442;-71
2021/03/02 02:45:18;;;;;;;12.37;8.50;;;4.50;99.90;;;;;;5052239;28;20432;-71
2021/03/02 02:47:46;;;;;;;9.33;8.43;;;4.40;99.90;;;;;;5048772;28;20437;-71
2021/03/02 02:50:14;;;;;;;13.50;9.00;;;4.40;99.90;;;;;;5049112;28;20440;-71
2021/03/02 02:52:40;;;;;;;10.60;8.00;;;4.30;99.90;;;;;;5054516;28;20405;-71
2021/03/02 02:55:07;;;;;;;9.20;8.23;;;4.20;99.90;;;;;;5049113;28;20998;-71
2021/03/02 02:57:41;;;;;;;9.40;7.83;;;4.20;99.90;;;;;;5035457;28;20413;-71
2021/03/02 03:00:07;;;;;;;11.73;8.60;;;4.10;99.90;;;;;;5033595;28;20474;-71
2021/03/02 03:02:35;;;;;;;10.93;8.90;;;4.10;99.90;;;;;;5034155;28;20412;-71
2021/03/02 03:05:08;;;;;;;12.57;9.17;;;4.10;99.90;;;;;;5034715;28;20415;-72
2021/03/02 03:07:45;;;;;;;11.37;8.53;;;4.10;99.90;;;;;;5045006;28;20430;-71
2021/03/02 03:10:12;;;;;;;11.50;7.83;;;4.20;99.90;;;;;;5046786;28;20439;-71
2021/03/02 03:12:42;;;;;;;12.70;8.40;;;4.20;99.90;;;;;;5025574;28;20441;-71
2021/03/02 03:15:09;;;;;;;10.63;8.33;;;4.20;99.90;;;;;;5043208;28;20412;-72
2021/03/02 03:17:49;;;;;;;11.43;7.63;;;4.20;99.90;;;;;;5041788;28;20435;-71
2021/03/02 03:20:16;;;;;;;12.93;8.53;;;4.20;99.90;;;;;;5033949;28;21050;-70
2021/03/02 03:22:42;;;;;;;10.77;8.27;;;4.20;99.90;;;;;;5034400;28;20411;-70
2021/03/02 03:25:09;;;;;;;9.97;7.57;;;4.10;99.90;;;;;;5016070;28;20916;-70
2021/03/02 03:27:40;;;;;;;9.57;7.70;;;4.00;99.90;;;;;;5033204;28;20966;-71
2021/03/02 03:30:08;;;;;;;10.87;9.07;;;4.00;99.90;;;;;;5033433;28;20435;-71
2021/03/02 03:32:34;;;;;;;11.47;8.10;;;3.90;99.90;;;;;;5015749;28;20454;-72
2021/03/02 03:35:02;;;;;;;9.23;7.27;;;4.00;99.90;;;;;;5033683;28;20413;-72
2021/03/02 03:37:29;;;;;;;11.03;7.97;;;3.90;99.90;;;;;;5015508;28;20470;-71
2021/03/02 03:39:54;;;;;;;8.50;7.60;;;3.90;99.90;;;;;;5015260;28;20459;-71
2021/03/02 03:42:20;;;;;;;11.43;8.27;;;3.90;99.90;;;;;;5035227;28;20466;-71
2021/03/02 03:44:45;;;;;;;12.13;8.37;;;3.90;99.90;;;;;;5037879;28;20236;-71
2021/03/02 03:47:11;;;;;;;10.20;7.30;;;3.90;99.90;;;;;;5037307;28;20239;-70
2021/03/02 03:49:36;;;;;;;9.43;7.37;;;4.00;99.90;;;;;;5036329;28;20255;-70
2021/03/02 03:52:06;;;;;;;12.77;7.60;;;4.00;99.90;;;;;;5036864;28;20228;-71
2021/03/02 03:54:33;;;;;;;6.67;6.03;;;4.00;99.90;;;;;;5037023;28;20555;-72
2021/03/02 03:57:00;;;;;;;10.30;7.37;;;3.90;99.90;;;;;;5019201;28;20886;-72
2021/03/02 03:59:26;;;;;;;8.70;7.20;;;3.90;99.90;;;;;;5018593;28;20453;-70
2021/03/02 04:01:54;;;;;;;9.70;7.20;;;3.90;99.90;;;;;;5019178;28;20759;-70
2021/03/02 04:04:20;;;;;;;10.43;7.23;;;3.80;99.90;;;;;;5037322;28;20453;-70
2021/03/02 04:06:47;;;;;;;10.57;7.83;;;3.80;99.90;;;;;;5042958;28;20403;-70
2021/03/02 04:09:13;;;;;;;9.53;7.23;;;3.80;99.90;;;;;;5049463;28;20426;-70
2021/03/02 04:11:39;;;;;;;10.90;6.80;;;3.80;99.90;;;;;;5048414;28;20423;-72
2021/03/02 04:14:05;;;;;;;10.47;7.07;;;3.80;99.90;;;;;;5040929;28;20467;-72
2021/03/02 04:16:32;;;;;;;11.67;7.57;;;3.70;99.90;;;;;;5040222;28;20494;-71
2021/03/02 04:18:57;;;;;;;9.63;8.47;;;3.70;99.90;;;;;;5019587;28;20664;-71
2021/03/02 04:21:23;;;;;;;11.83;8.10;;;3.80;99.90;;;;;;5019317;28;20477;-71
2021/03/02 04:23:48;;;;;;;9.50;6.90;;;3.90;99.90;;;;;;5036360;28;20213;-71
2021/03/02 04:26:14;;;;;;;10.60;7.73;;;3.90;99.90;;;;;;5036567;28;20173;-70
2021/03/02 04:28:39;;;;;;;10.97;6.93;;;4.00;99.90;;;;;;5036650;28;20227;-70
2021/03/02 04:31:05;;;;;;;9.10;7.17;;;4.10;99.90;;;;;;5037283;28;20546;-70
2021/03/02 04:33:31;;;;;;;11.30;8.20;;;4.10;99.90;;;;;;5038129;28;20185;-70
2021/03/02 04:35:56;;;;;;;10.07;6.77;;;4.10;99.90;;;;;;5037689;28;20175;-70
2021/03/02 04:38:22;;;;;;;9.70;7.07;;;4.00;99.90;;;;;;5037038;28;20182;-70
2021/03/02 04:40:47;;;;;;;11.93;7.27;;;3.90;99.90;;;;;;5037374;28;20301;-70
2021/03/02 04:43:22;;;;;;;10.03;7.70;;;3.90;99.90;;;;;;5035979;28;20267;-70
2021/03/02 04:45:49;;;;;;;10.33;8.43;;;4.00;99.90;;;;;;5035593;28;20615;-70
2021/03/02 04:48:14;;;;;;;9.77;7.63;;;4.10;99.90;;;;;;5036007;28;20421;-70
2021/03/02 04:50:40;;;;;;;9.37;6.97;;;4.10;99.90;;;;;;5018019;28;20462;-70
2021/03/02 04:53:05;;;;;;;13.43;8.20;;;4.10;99.90;;;;;;5035305;28;20181;-71
2021/03/02 04:55:31;;;;;;;11.33;7.73;;;4.20;99.90;;;;;;5035862;28;20536;-70
2021/03/02 04:57:57;;;;;;;9.67;7.20;;;4.10;99.90;;;;;;5018205;28;20309;-70
2021/03/02 05:00:23;;;;;;;12.60;8.77;;;4.10;99.90;;;;;;5035299;28;20697;-71
2021/03/02 05:02:48;;;;;;;10.50;7.40;;;4.10;99.90;;;;;;5035271;28;20176;-70
2021/03/02 05:05:14;;;;;;;13.10;8.17;;;4.10;99.90;;;;;;5035858;28;20443;-70
2021/03/02 05:07:40;;;;;;;10.10;7.30;;;4.20;99.90;;;;;;5035636;28;20196;-70
2021/03/02 05:10:06;;;;;;;10.73;7.90;;;4.20;99.90;;;;;;5035237;28;20455;-70
2021/03/02 05:12:31;;;;;;;8.30;6.70;;;4.20;99.90;;;;;;5035543;28;20189;-70
2021/03/02 05:14:57;;;;;;;8.90;7.20;;;4.20;99.90;;;;;;5034571;28;20456;-70
2021/03/02 05:17:22;;;;;;;9.87;7.43;;;4.30;99.90;;;;;;5035108;28;20567;-71
2021/03/02 05:19:48;;;;;;;10.67;7.17;;;4.30;99.90;;;;;;5034872;28;20212;-71
2021/03/02 05:22:14;;;;;;;9.47;7.27;;;4.30;99.90;;;;;;5017778;28;20515;-71
2021/03/02 05:24:40;;;;;;;10.30;7.63;;;4.40;99.90;;;;;;5034792;28;20963;-71
2021/03/02 05:27:05;;;;;;;15.70;8.73;;;4.40;99.90;;;;;;5035316;28;20592;-71
2021/03/02 05:29:31;;;;;;;9.97;7.60;;;4.40;99.90;;;;;;5034767;28;20205;-71
2021/03/02 05:31:56;;;;;;;9.80;7.40;;;4.40;99.90;;;;;;5035193;28;20606;-71
2021/03/02 05:34:22;;;;;;;9.60;7.53;;;4.40;99.90;;;;;;5034687;28;20191;-71
2021/03/02 05:36:47;;;;;;;10.27;7.80;;;4.40;99.90;;;;;;5034824;28;20654;-71
2021/03/02 05:39:13;;;;;;;11.47;6.90;;;4.40;99.90;;;;;;5034451;28;20582;-71
2021/03/02 05:41:42;;;;;;;8.67;7.20;;;4.30;99.90;;;;;;5034601;28;20206;-72
2021/03/02 05:44:10;;;;;;;10.20;7.10;;;4.30;99.90;;;;;;5035323;28;20297;-71
2021/03/02 05:46:37;;;;;;;8.23;6.17;;;4.30;99.90;;;;;;5026517;28;20483;-72
2021/03/02 05:49:04;;;;;;;8.90;6.77;;;4.20;99.90;;;;;;5023077;28;20841;-71
2021/03/02 05:51:30;;;;;;;12.70;8.33;;;4.10;99.90;;;;;;5030049;28;20436;-72
2021/03/02 05:53:56;;;;;;;10.07;6.80;;;4.00;99.90;;;;;;5035020;28;20956;-72
2021/03/02 05:56:22;;;;;;;9.23;6.73;;;4.00;99.90;;;;;;5035045;28;20494;-70
2021/03/02 05:58:51;;;;;;;9.60;6.43;;;4.00;99.90;;;;;;5035179;28;20413;-70
2021/03/02 06:01:17;;;;;;;15.17;7.97;;;4.00;99.90;;;;;;5030691;28;20226;-70
2021/03/02 06:03:42;;;;;;;12.57;9.00;;;3.90;99.90;;;;;;5025950;28;20438;-70
2021/03/02 06:06:08;;;;;;;8.47;6.33;;;3.90;99.90;;;;;;5023693;28;20208;-70
2021/03/02 06:08:34;;;;;;;9.60;7.13;;;3.90;99.90;;;;;;5041333;28;20428;-71
2021/03/02 06:11:28;;;;;;;8.10;6.83;;;3.90;99.90;;;;;;5031323;28;20299;-71
2021/03/02 06:13:54;;;;;;;9.43;6.97;;;3.90;99.90;;;;;;5033893;28;20295;-71
2021/03/02 06:16:20;;;;;;;13.70;7.83;;;4.00;99.90;;;;;;5018169;28;20441;-72
2021/03/02 06:18:51;;;;;;;9.80;8.10;;;4.10;99.90;;;;;;5034716;28;20441;-72
2021/03/02 06:21:17;;;;;;;9.67;6.77;;;4.10;99.90;;;;;;5018681;28;20468;-71
2021/03/02 06:23:51;;;;;;;10.63;7.83;;;4.10;99.90;;;;;;5026198;28;20445;-71
2021/03/02 06:26:25;;;;;;;10.80;6.90;;;4.20;99.90;;;;;;5021872;28;20487;-70
2021/03/02 06:28:52;;;;;;;8.90;6.70;;;4.20;99.90;;;;;;5028313;28;20498;-72
2021/03/02 06:31:39;;;;;;;11.00;7.30;;;4.20;99.90;;;;;;5001279;28;21097;-71
2021/03/02 06:34:25;;;;;;;10.50;6.93;;;4.30;99.90;;;;;;5016316;28;20452;-72
2021/03/02 06:36:54;;;;;;;10.53;7.90;;;4.30;99.90;;;;;;5016266;28;20766;-71
2021/03/02 06:39:28;;;;;;;10.57;7.80;;;4.40;99.90;;;;;;5033720;28;20792;-71
2021/03/02 06:42:13;;;;;;;10.60;7.13;;;4.40;99.90;;;;;;5027873;28;20472;-71
2021/03/02 06:44:40;;;;;;;10.00;7.80;;;4.40;99.90;;;;;;5024601;28;20513;-69
2021/03/02 06:47:05;;;;;;;10.60;8.30;;;4.40;99.90;;;;;;5028130;28;20973;-70
2021/03/02 06:49:45;;;;;;;8.13;6.93;;;4.40;99.90;;;;;;5030799;28;20515;-70
2021/03/02 06:52:16;;;;;;;12.20;7.53;;;4.50;99.90;;;;;;5021963;28;20261;-70
2021/03/02 06:54:41;;;;;;;10.80;8.17;;;4.50;99.90;;;;;;5032367;28;20434;-71
2021/03/02 06:57:07;;;;;;;11.17;8.43;;;4.50;99.90;;;;;;5030624;28;20447;-71
2021/03/02 06:59:33;;;;;;;9.17;8.00;;;4.60;99.90;;;;;;5031894;28;20548;-71
2021/03/02 07:01:59;;;;;;;11.50;8.67;;;4.60;99.90;;;;;;5031051;28;20206;-71
2021/03/02 07:04:28;;;;;;;14.83;9.53;;;4.70;99.90;;;;;;5028512;28;20271;-72
2021/03/02 07:06:56;;;;;;;13.10;9.20;;;4.70;99.90;;;;;;5032721;28;20431;-71
2021/03/02 07:09:22;;;;;;;13.47;10.03;;;4.80;99.90;;;;;;5035474;28;20427;-71
2021/03/02 07:11:48;;;;;;;15.77;10.17;;;4.80;99.90;;;;;;5036955;28;20486;-71
2021/03/02 07:14:15;;;;;;;12.47;9.77;;;4.80;99.90;;;;;;5033264;28;20803;-72
2021/03/02 07:16:46;;;;;;;11.30;9.83;;;4.80;99.90;;;;;;5033704;28;20483;-71
2021/03/02 07:19:17;;;;;;;11.83;10.63;;;4.90;99.90;;;;;;5037377;28;20479;-71
2021/03/02 07:21:45;;;;;;;14.37;11.23;;;4.90;99.90;;;;;;5033931;28;20471;-71
2021/03/02 07:24:13;;;;;;;12.83;10.60;;;5.00;99.90;;;;;;5036977;28;20427;-71
2021/03/02 07:26:44;;;;;;;17.07;11.83;;;5.00;99.90;;;;;;5034455;28;20459;-71
2021/03/02 07:29:10;;;;;;;14.40;10.80;;;5.00;99.90;;;;;;5035693;28;20417;-70
2021/03/02 07:31:37;;;;;;;17.73;11.53;;;5.10;99.90;;;;;;5038671;28;20429;-72
2021/03/02 07:34:09;;;;;;;15.87;11.57;;;5.10;99.90;;;;;;5012081;28;20450;-71
2021/03/02 07:36:42;;;;;;;13.40;10.57;;;5.10;99.90;;;;;;5035722;28;20433;-71
2021/03/02 07:39:23;;;;;;;13.40;10.67;;;5.20;99.90;;;;;;5037304;28;20828;-72
2021/03/02 07:41:51;;;;;;;13.23;9.70;;;5.20;99.90;;;;;;5019861;28;20517;-72
2021/03/02 07:44:17;;;;;;;19.73;10.47;;;5.30;99.90;;;;;;5038308;28;20417;-72
2021/03/02 07:46:46;;;;;;;13.27;9.90;;;5.40;99.90;;;;;;5037246;28;20539;-72
2021/03/02 07:49:23;;;;;;;13.60;9.90;;;5.40;99.90;;;;;;5046156;28;20258;-71
2021/03/02 07:52:01;;;;;;;11.97;8.30;;;5.50;99.90;;;;;;5041460;28;20405;-72
2021/03/02 07:54:31;;;;;;;13.30;9.53;;;5.60;99.90;;;;;;5023706;28;20749;-72
2021/03/02 07:57:15;;;;;;;13.80;10.17;;;5.60;99.90;;;;;;5041801;28;20410;-71
2021/03/02 08:00:13;;;;;;;14.70;9.50;;;5.70;99.90;;;;;;5037018;28;20487;-72
2021/03/02 08:02:38;;;;;;;17.37;9.60;;;5.80;99.90;;;;;;5016842;28;20491;-72
2021/03/02 08:05:30;;;;;;;13.10;9.17;;;5.80;99.90;;;;;;5038246;28;20409;-72
2021/03/02 08:08:23;;;;;;;15.10;9.90;;;5.90;99.90;;;;;;5019677;28;20163;-72
2021/03/02 08:10:57;;;;;;;20.27;12.00;;;6.00;99.90;;;;;;5016572;28;20495;-72
2021/03/02 08:13:43;;;;;;;15.53;10.47;;;6.00;99.90;;;;;;5021651;28;21046;-72
2021/03/02 08:16:10;;;;;;;16.03;11.00;;;6.10;99.90;;;;;;5039395;28;20416;-72
2021/03/02 08:18:37;;;;;;;13.90;10.20;;;6.20;99.90;;;;;;5046846;28;20426;-71
2021/03/02 08:21:13;;;;;;;14.77;10.63;;;6.30;99.90;;;;;;5031800;28;21256;-72
2021/03/02 08:23:48;;;;;;;17.30;11.90;;;6.40;99.90;;;;;;5018468;28;20480;-71
2021/03/02 08:26:30;;;;;;;20.17;11.80;;;6.50;99.90;;;;;;5032688;28;20500;-72
2021/03/02 08:29:16;;;;;;;17.97;11.97;;;6.60;99.90;;;;;;5026607;28;20520;-73
2021/03/02 08:31:49;;;;;;;14.40;11.73;;;6.70;99.90;;;;;;5022373;28;20462;-71
2021/03/02 08:34:17;;;;;;;20.30;11.77;;;6.80;99.90;;;;;;5032680;28;20413;-71
2021/03/02 08:36:51;;;;;;;19.67;12.50;;;7.00;99.90;;;;;;5028448;28;20850;-71
2021/03/02 08:39:18;;;;;;;16.20;12.53;;;7.10;99.90;;;;;;5014873;28;20487;-72
2021/03/02 08:41:47;;;;;;;15.63;12.07;;;7.30;99.90;;;;;;5035480;28;20430;-71
2021/03/02 08:44:24;;;;;;;14.03;10.43;;;7.40;99.90;;;;;;5030968;28;20948;-71
2021/03/02 08:46:51;;;;;;;19.47;10.70;;;7.50;99.90;;;;;;5031537;28;20896;-72
2021/03/02 08:49:18;;;;;;;13.93;9.10;;;7.70;99.90;;;;;;5035812;28;20413;-71
2021/03/02 08:51:44;;;;;;;13.67;9.13;;;7.90;99.90;;;;;;5035172;28;20411;-71
2021/03/02 08:54:09;;;;;;;14.63;9.10;;;8.00;99.90;;;;;;5034769;28;20434;-72
2021/03/02 08:56:35;;;;;;;15.43;9.90;;;8.20;99.90;;;;;;5035644;28;20573;-72
2021/03/02 08:59:09;;;;;;;11.93;9.93;;;8.40;99.90;;;;;;5035128;28;20175;-72
2021/03/02 09:01:36;;;;;;;13.83;9.57;;;8.50;99.90;;;;;;5034165;28;20414;-72
2021/03/02 09:04:19;;;;;;;11.52;8.82;;;8.70;99.90;;;;;;5034156;28;20716;-72
2021/03/02 09:06:46;;;;;;;12.80;7.90;;;8.80;99.90;;;;;;5035125;28;20200;-70
2021/03/02 09:09:13;;;;;;;10.20;6.40;;;9.20;99.90;;;;;;5034999;28;20443;-73
2021/03/02 09:11:41;;;;;;;10.80;7.30;;;9.40;99.90;;;;;;5033918;28;20456;-71
2021/03/02 09:14:22;;;;;;;10.00;7.80;;;9.60;99.90;;;;;;5035036;28;20459;-72
2021/03/02 09:17:02;;;;;;;11.20;7.90;;;9.90;99.90;;;;;;5034991;28;20452;-72
2021/03/02 09:19:41;;;;;;;10.20;7.70;;;10.10;99.90;;;;;;5034263;28;20826;-72
2021/03/02 09:22:15;;;;;;;14.47;8.83;;;10.10;99.90;;;;;;5034158;28;20441;-72
2021/03/02 09:24:47;;;;;;;13.43;7.93;;;10.30;99.90;;;;;;5028315;28;20500;-74
2021/03/02 09:27:15;;;;;;;8.87;7.10;;;10.30;99.70;;;;;;5025099;28;20453;-71
2021/03/02 09:29:46;;;;;;;10.57;8.03;;;10.40;99.50;;;;;;5031184;28;20469;-71
2021/03/02 09:32:15;;;;;;;10.00;8.03;;;10.50;99.00;;;;;;5025376;28;20452;-71
2021/03/02 09:34:45;;;;;;;9.00;6.43;;;10.50;99.00;;;;;;5031657;28;20464;-71
2021/03/02 09:37:19;;;;;;;10.43;7.70;;;10.60;98.90;;;;;;5023414;28;20433;-73
2021/03/02 09:40:07;;;;;;;10.53;7.70;;;10.70;98.40;;;;;;5042156;28;20890;-71
2021/03/02 09:42:34;;;;;;;12.20;7.30;;;10.70;97.90;;;;;;5015946;28;20418;-72
2021/03/02 09:45:03;;;;;;;10.37;7.80;;;10.80;97.70;;;;;;5042795;28;20418;-71
2021/03/02 09:47:36;;;;;;;12.67;7.80;;;11.00;98.00;;;;;;5035368;28;20569;-72
2021/03/02 09:50:10;;;;;;;13.07;8.97;;;11.00;97.90;;;;;;5035955;28;20487;-71
2021/03/02 09:52:37;;;;;;;12.17;9.30;;;11.10;97.40;;;;;;5017493;28;20509;-71
2021/03/02 09:55:18;;;;;;;13.37;8.77;;;11.20;97.40;;;;;;5034531;28;20410;-72
2021/03/02 09:57:52;;;;;;;13.80;9.57;;;11.30;97.40;;;;;;5016209;28;20434;-73
2021/03/02 10:00:24;;;;;;;13.90;9.17;;;11.40;97.40;;;;;;5032522;28;20457;-72
2021/03/02 10:02:51;;;;;;;10.50;8.40;;;11.60;97.10;;;;;;5028027;28;20755;-72
2021/03/02 10:05:29;;;;;;;14.87;8.47;;;11.70;96.80;;;;;;5033646;28;20786;-72
2021/03/02 10:07:54;;;;;;;18.90;9.00;;;11.80;96.50;;;;;;4996435;28;20534;-72
2021/03/02 10:10:38;;;;;;;11.97;7.53;;;11.80;95.90;;;;;;5014201;28;20482;-71
2021/03/02 10:13:04;;;;;;;13.07;7.37;;;11.80;95.60;;;;;;5014923;28;20247;-72
2021/03/02 10:15:29;;;;;;;10.47;7.97;;;11.90;95.60;;;;;;4997700;28;20427;-72
2021/03/02 10:17:55;;;;;;;11.87;7.80;;;12.10;95.70;;;;;;5017292;28;20237;-71
2021/03/02 10:20:20;;;;;;;11.37;7.60;;;12.20;94.80;;;;;;5016739;28;20222;-71
2021/03/02 10:22:46;;;;;;;9.80;6.97;;;12.30;95.10;;;;;;5014707;28;20584;-71
2021/03/02 10:25:12;;;;;;;8.57;6.80;;;12.50;94.80;;;;;;5014433;28;20525;-72
2021/03/02 10:27:42;;;;;;;7.90;6.30;;;12.60;94.30;;;;;;5013820;28;20171;-71
2021/03/02 10:30:08;;;;;;;8.83;6.87;;;12.70;94.20;;;;;;5018826;28;20899;-72
2021/03/02 10:32:34;;;;;;;9.63;7.20;;;12.90;94.00;;;;;;5033790;28;20499;-72
2021/03/02 10:34:59;;;;;;;9.50;6.67;;;12.90;93.90;;;;;;5033647;28;20413;-72
2021/03/02 10:37:25;;;;;;;10.07;7.50;;;13.00;93.80;;;;;;5034316;28;20321;-71
2021/03/02 10:39:50;;;;;;;6.83;6.10;;;13.10;93.80;;;;;;5032960;28;20214;-71
2021/03/02 10:42:18;;;;;;;9.53;6.90;;;13.20;93.70;;;;;;5016653;28;20472;-71
2021/03/02 10:44:43;;;;;;;9.20;6.30;;;13.20;93.40;;;;;;5034513;28;20166;-71
2021/03/02 10:47:09;;;;;;;9.10;6.70;;;13.30;93.30;;;;;;5033897;28;20409;-72
2021/03/02 10:49:34;;;;;;;6.27;5.67;;;13.30;93.10;;;;;;5033856;28;20273;-71
2021/03/02 10:52:00;;;;;;;5.83;5.00;;;13.50;91.80;;;;;;5033093;28;20178;-71
2021/03/02 10:54:25;;;;;;;6.37;4.63;;;13.50;91.10;;;;;;5034223;28;20182;-72
2021/03/02 10:56:51;;;;;;;4.50;4.10;;;13.60;90.80;;;;;;5033718;28;20182;-72
2021/03/02 10:59:16;;;;;;;5.93;5.23;;;13.60;90.30;;;;;;5033476;28;20236;-71
2021/03/02 11:01:42;;;;;;;5.27;4.77;;;13.60;90.50;;;;;;5016034;28;20358;-72
2021/03/02 11:04:08;;;;;;;7.10;4.73;;;13.60;90.20;;;;;;5025197;28;20203;-71
2021/03/02 11:06:33;;;;;;;6.00;5.27;;;13.60;90.30;;;;;;5014014;28;20171;-70
2021/03/02 11:09:00;;;;;;;7.63;5.53;;;13.70;90.50;;;;;;5013734;28;20214;-71
2021/03/02 11:11:26;;;;;;;8.30;6.30;;;13.80;90.40;;;;;;5013791;28;20187;-71
2021/03/02 11:13:52;;;;;;;6.70;5.90;;;13.90;90.40;;;;;;5013879;28;20476;-71
2021/03/02 11:16:18;;;;;;;6.80;5.30;;;14.00;90.00;;;;;;5014006;28;20413;-71
2021/03/02 11:18:44;;;;;;;6.10;5.50;;;14.00;89.40;;;;;;5013495;28;20337;-71
2021/03/02 11:21:12;;;;;;;7.83;5.73;;;14.10;90.00;;;;;;5013846;28;20203;-71
2021/03/02 11:23:38;;;;;;;5.40;4.90;;;14.10;90.00;;;;;;5014082;28;20221;-71
2021/03/02 11:26:04;;;;;;;6.30;5.33;;;14.20;89.20;;;;;;5013773;28;20799;-73
2021/03/02 11:28:29;;;;;;;8.33;5.10;;;14.20;87.50;;;;;;5013883;28;20434;-71
2021/03/02 11:30:55;;;;;;;6.20;5.33;;;14.30;87.70;;;;;;5024101;28;20242;-71
2021/03/02 11:33:20;;;;;;;7.40;5.47;;;14.30;87.70;;;;;;5033523;28;20618;-71
2021/03/02 11:35:46;;;;;;;8.20;5.80;;;14.40;86.50;;;;;;5033090;28;20237;-71
2021/03/02 11:38:13;;;;;;;8.40;5.80;;;14.30;86.00;;;;;;5032865;28;20578;-71
2021/03/02 11:40:40;;;;;;;8.73;6.17;;;14.30;86.60;;;;;;5033488;28;20194;-71
2021/03/02 11:43:05;;;;;;;10.30;6.83;;;14.40;85.30;;;;;;5033751;28;20490;-71
2021/03/02 11:45:34;;;;;;;7.80;6.13;;;14.40;85.40;;;;;;5036129;28;20425;-71
2021/03/02 11:48:00;;;;;;;8.03;5.80;;;14.40;85.20;;;;;;5036223;28;20163;-71
2021/03/02 11:50:26;;;;;;;7.67;6.33;;;14.40;85.00;;;;;;5036264;28;20782;-71
2021/03/02 11:52:51;;;;;;;6.30;5.70;;;14.40;85.20;;;;;;5034045;28;20925;-72
2021/03/02 11:55:18;;;;;;;6.50;5.80;;;14.40;85.50;;;;;;5033312;28;20659;-73
2021/03/02 11:57:45;;;;;;;7.53;6.83;;;14.40;84.80;;;;;;5015273;28;20518;-72
2021/03/02 12:00:19;;;;;;;6.33;5.73;;;14.40;85.00;;;;;;5015243;28;20548;-71
2021/03/02 12:02:46;;;;;;;6.93;5.90;;;14.40;84.50;;;;;;5016316;28;20431;-72
2021/03/02 12:05:12;;;;;;;8.43;6.20;;;14.40;84.20;;;;;;5019451;28;20437;-71
2021/03/02 12:07:38;;;;;;;9.07;6.80;;;14.50;83.50;;;;;;5015591;28;20413;-72
2021/03/02 12:10:06;;;;;;;9.60;6.60;;;14.50;83.10;;;;;;5016781;28;20434;-71
2021/03/02 12:12:32;;;;;;;7.13;6.27;;;14.50;83.50;;;;;;5017225;28;20230;-72
2021/03/02 12:14:58;;;;;;;8.50;7.00;;;14.50;83.90;;;;;;5017131;28;20407;-72
2021/03/02 12:17:23;;;;;;;7.13;6.43;;;14.40;84.00;;;;;;5017063;28;20187;-72
2021/03/02 12:19:49;;;;;;;7.70;6.90;;;14.50;84.70;;;;;;5016681;28;20454;-70
2021/03/02 12:22:15;;;;;;;8.60;6.63;;;14.50;83.50;;;;;;5016772;28;20164;-72
2021/03/02 12:24:40;;;;;;;8.33;6.97;;;14.40;84.10;;;;;;5015413;28;20183;-72
2021/03/02 12:27:06;;;;;;;9.90;7.47;;;14.40;84.60;;;;;;5016639;28;20231;-71
2021/03/02 12:29:32;;;;;;;7.23;6.47;;;14.40;85.00;;;;;;5016563;28;20270;-72
2021/03/02 12:31:58;;;;;;;9.50;7.13;;;14.40;85.00;;;;;;5035470;28;20469;-72
2021/03/02 12:34:24;;;;;;;9.20;6.57;;;14.40;84.50;;;;;;5018372;28;20237;-72
2021/03/02 12:36:50;;;;;;;9.60;7.20;;;14.40;84.20;;;;;;5036409;28;20589;-71
2021/03/02 12:39:16;;;;;;;9.53;6.63;;;14.30;84.50;;;;;;5036057;28;20647;-70
2021/03/02 12:41:41;;;;;;;8.43;6.70;;;14.30;84.90;;;;;;5036043;28;20410;-73
2021/03/02 12:44:07;;;;;;;9.13;6.30;;;14.30;84.10;;;;;;5036344;28;20171;-72
2021/03/02 12:46:33;;;;;;;11.87;7.83;;;14.30;84.30;;;;;;5035512;28;20240;-72
2021/03/02 12:48:59;;;;;;;10.07;7.33;;;14.30;83.70;;;;;;5035773;28;20163;-72
2021/03/02 12:51:25;;;;;;;10.30;7.10;;;14.30;83.10;;;;;;5035641;28;20771;-72
2021/03/02 12:53:50;;;;;;;9.23;6.67;;;14.30;82.50;;;;;;5018237;28;20171;-72